sensor_id;sensor_type;location;lat;lon;timestamp;P1;durP1;ratioP1;P2;durP2;ratioP2
17812;SDS011;9030;50.792;8.320;2023-07-13T00:02:17;6.55;;;1.92;;
17812;SDS011;9030;50.792;8.320;2023-07-13T00:04:43;7.05;;;1.83;;
17812;SDS011;9030;50.792;8.320;2023-07-13T00:07:10;7.03;;;1.73;;
17812;SDS011;9030;50.792;8.320;2023-07-13T00:09:39;6.20;;;2.05;;
17812;SDS011;9030;50.792;8.320;2023-07-13T00:12:19;4.80;;;1.88;;
17812;SDS011;9030;50.792;8.320;2023-07-13T00:14:49;5.03;;;1.58;;
17812;SDS011;9030;50.792;8.320;2023-07-13T00:17:16;4.88;;;1.73;;
17812;SDS011;9030;50.792;8.320;2023-07-13T00:19:43;4.05;;;1.60;;
17812;SDS011;9030;50.792;8.320;2023-07-13T00:22:10;6.28;;;2.42;;
17812;SDS011;9030;50.792;8.320;2023-07-13T00:24:37;4.93;;;1.70;;
17812;SDS011;9030;50.792;8.320;2023-07-13T00:27:06;5.72;;;2.08;;
17812;SDS011;9030;50.792;8.320;2023-07-13T00:29:33;5.80;;;2.20;;
17812;SDS011;9030;50.792;8.320;2023-07-13T00:32:00;4.45;;;2.17;;
17812;SDS011;9030;50.792;8.320;2023-07-13T00:34:29;3.28;;;1.73;;
17812;SDS011;9030;50.792;8.320;2023-07-13T00:36:56;6.45;;;1.92;;
17812;SDS011;9030;50.792;8.320;2023-07-13T00:39:22;8.23;;;2.63;;
17812;SDS011;9030;50.792;8.320;2023-07-13T00:41:49;6.13;;;2.50;;
17812;SDS011;9030;50.792;8.320;2023-07-13T00:44:17;7.10;;;1.80;;
17812;SDS011;9030;50.792;8.320;2023-07-13T00:46:44;8.75;;;2.05;;
17812;SDS011;9030;50.792;8.320;2023-07-13T00:49:13;4.63;;;1.75;;
17812;SDS011;9030;50.792;8.320;2023-07-13T00:51:44;6.82;;;2.90;;
17812;SDS011;9030;50.792;8.320;2023-07-13T00:54:15;7.50;;;2.25;;
17812;SDS011;9030;50.792;8.320;2023-07-13T00:56:45;6.93;;;2.05;;
17812;SDS011;9030;50.792;8.320;2023-07-13T00:59:14;11.40;;;2.55;;
17812;SDS011;9030;50.792;8.320;2023-07-13T01:01:43;7.90;;;2.63;;
17812;SDS011;9030;50.792;8.320;2023-07-13T01:04:10;10.43;;;2.40;;
17812;SDS011;9030;50.792;8.320;2023-07-13T01:06:38;6.82;;;2.40;;
17812;SDS011;9030;50.792;8.320;2023-07-13T01:09:10;7.80;;;2.20;;
17812;SDS011;9030;50.792;8.320;2023-07-13T01:11:38;8.48;;;1.75;;
17812;SDS011;9030;50.792;8.320;2023-07-13T01:14:05;8.48;;;2.28;;
17812;SDS011;9030;50.792;8.320;2023-07-13T01:16:33;8.65;;;2.72;;
17812;SDS011;9030;50.792;8.320;2023-07-13T01:19:01;8.38;;;2.10;;
17812;SDS011;9030;50.792;8.320;2023-07-13T01:21:33;7.20;;;1.98;;
17812;SDS011;9030;50.792;8.320;2023-07-13T01:24:00;9.38;;;2.33;;
17812;SDS011;9030;50.792;8.320;2023-07-13T01:26:27;7.78;;;2.13;;
17812;SDS011;9030;50.792;8.320;2023-07-13T01:28:53;7.68;;;2.15;;
17812;SDS011;9030;50.792;8.320;2023-07-13T01:31:21;3.58;;;1.83;;
17812;SDS011;9030;50.792;8.320;2023-07-13T01:33:48;3.92;;;2.15;;
17812;SDS011;9030;50.792;8.320;2023-07-13T01:36:14;6.22;;;1.92;;
17812;SDS011;9030;50.792;8.320;2023-07-13T01:38:42;7.88;;;1.80;;
17812;SDS011;9030;50.792;8.320;2023-07-13T01:41:09;10.02;;;1.77;;
17812;SDS011;9030;50.792;8.320;2023-07-13T01:43:36;8.30;;;1.88;;
17812;SDS011;9030;50.792;8.320;2023-07-13T01:46:02;6.00;;;2.30;;
17812;SDS011;9030;50.792;8.320;2023-07-13T01:48:29;9.07;;;2.40;;
17812;SDS011;9030;50.792;8.320;2023-07-13T01:50:56;7.07;;;2.28;;
17812;SDS011;9030;50.792;8.320;2023-07-13T01:53:22;7.78;;;2.88;;
17812;SDS011;9030;50.792;8.320;2023-07-13T01:55:50;5.30;;;2.00;;
17812;SDS011;9030;50.792;8.320;2023-07-13T01:58:17;8.10;;;2.08;;
17812;SDS011;9030;50.792;8.320;2023-07-13T02:00:44;9.25;;;2.03;;
17812;SDS011;9030;50.792;8.320;2023-07-13T02:03:24;10.75;;;2.72;;
17812;SDS011;9030;50.792;8.320;2023-07-13T02:05:52;10.68;;;2.28;;
17812;SDS011;9030;50.792;8.320;2023-07-13T02:08:20;5.32;;;1.98;;
17812;SDS011;9030;50.792;8.320;2023-07-13T02:10:51;7.53;;;2.28;;
17812;SDS011;9030;50.792;8.320;2023-07-13T02:13:22;6.63;;;2.00;;
17812;SDS011;9030;50.792;8.320;2023-07-13T02:15:50;4.70;;;2.05;;
17812;SDS011;9030;50.792;8.320;2023-07-13T02:18:20;8.48;;;1.77;;
17812;SDS011;9030;50.792;8.320;2023-07-13T02:20:59;14.43;;;2.22;;
17812;SDS011;9030;50.792;8.320;2023-07-13T02:23:44;7.03;;;1.92;;
17812;SDS011;9030;50.792;8.320;2023-07-13T02:33:21;4.57;;;1.70;;
17812;SDS011;9030;50.792;8.320;2023-07-13T02:35:57;7.32;;;2.10;;
17812;SDS011;9030;50.792;8.320;2023-07-13T02:38:36;13.68;;;2.15;;
17812;SDS011;9030;50.792;8.320;2023-07-13T02:41:35;11.65;;;2.15;;
17812;SDS011;9030;50.792;8.320;2023-07-13T02:44:19;10.27;;;2.05;;
17812;SDS011;9030;50.792;8.320;2023-07-13T02:47:01;6.75;;;1.90;;
17812;SDS011;9030;50.792;8.320;2023-07-13T02:49:46;11.18;;;2.33;;
17812;SDS011;9030;50.792;8.320;2023-07-13T02:55:29;4.18;;;1.73;;
17812;SDS011;9030;50.792;8.320;2023-07-13T02:58:12;9.95;;;2.72;;
17812;SDS011;9030;50.792;8.320;2023-07-13T03:00:56;8.30;;;2.55;;
17812;SDS011;9030;50.792;8.320;2023-07-13T03:03:38;8.00;;;2.65;;
17812;SDS011;9030;50.792;8.320;2023-07-13T03:06:21;10.07;;;2.30;;
17812;SDS011;9030;50.792;8.320;2023-07-13T03:09:04;10.00;;;2.50;;
17812;SDS011;9030;50.792;8.320;2023-07-13T03:12:15;5.93;;;2.30;;
17812;SDS011;9030;50.792;8.320;2023-07-13T03:15:17;8.82;;;2.10;;
17812;SDS011;9030;50.792;8.320;2023-07-13T03:18:15;11.27;;;2.95;;
17812;SDS011;9030;50.792;8.320;2023-07-13T03:21:21;5.68;;;1.80;;
17812;SDS011;9030;50.792;8.320;2023-07-13T03:24:27;9.93;;;2.85;;
17812;SDS011;9030;50.792;8.320;2023-07-13T03:27:20;12.63;;;2.58;;
17812;SDS011;9030;50.792;8.320;2023-07-13T03:30:05;7.63;;;2.38;;
17812;SDS011;9030;50.792;8.320;2023-07-13T03:32:58;8.98;;;1.70;;
17812;SDS011;9030;50.792;8.320;2023-07-13T03:35:58;10.00;;;2.88;;
17812;SDS011;9030;50.792;8.320;2023-07-13T03:39:00;6.05;;;1.88;;
17812;SDS011;9030;50.792;8.320;2023-07-13T03:41:53;6.45;;;2.30;;
17812;SDS011;9030;50.792;8.320;2023-07-13T03:44:27;7.47;;;2.58;;
17812;SDS011;9030;50.792;8.320;2023-07-13T03:47:04;5.45;;;2.10;;
17812;SDS011;9030;50.792;8.320;2023-07-13T03:49:45;7.75;;;1.98;;
17812;SDS011;9030;50.792;8.320;2023-07-13T03:52:43;11.43;;;2.30;;
17812;SDS011;9030;50.792;8.320;2023-07-13T04:01:52;8.07;;;2.00;;
17812;SDS011;9030;50.792;8.320;2023-07-13T04:04:40;6.63;;;2.10;;
17812;SDS011;9030;50.792;8.320;2023-07-13T04:07:24;19.05;;;3.05;;
17812;SDS011;9030;50.792;8.320;2023-07-13T04:10:09;14.50;;;2.45;;
17812;SDS011;9030;50.792;8.320;2023-07-13T04:13:00;8.98;;;2.22;;
17812;SDS011;9030;50.792;8.320;2023-07-13T04:16:30;13.05;;;2.95;;
17812;SDS011;9030;50.792;8.320;2023-07-13T04:22:54;7.50;;;1.70;;
17812;SDS011;9030;50.792;8.320;2023-07-13T04:25:36;13.18;;;3.58;;
17812;SDS011;9030;50.792;8.320;2023-07-13T04:28:26;5.32;;;1.70;;
17812;SDS011;9030;50.792;8.320;2023-07-13T04:30:53;7.80;;;2.17;;
17812;SDS011;9030;50.792;8.320;2023-07-13T04:33:21;17.00;;;2.38;;
17812;SDS011;9030;50.792;8.320;2023-07-13T04:35:48;8.32;;;2.65;;
17812;SDS011;9030;50.792;8.320;2023-07-13T04:38:16;6.13;;;2.10;;
17812;SDS011;9030;50.792;8.320;2023-07-13T04:40:44;7.55;;;2.22;;
17812;SDS011;9030;50.792;8.320;2023-07-13T04:43:11;7.95;;;2.58;;
17812;SDS011;9030;50.792;8.320;2023-07-13T04:45:38;9.68;;;2.70;;
17812;SDS011;9030;50.792;8.320;2023-07-13T04:48:05;7.88;;;2.15;;
17812;SDS011;9030;50.792;8.320;2023-07-13T04:50:31;7.55;;;2.25;;
17812;SDS011;9030;50.792;8.320;2023-07-13T04:52:58;7.15;;;2.28;;
17812;SDS011;9030;50.792;8.320;2023-07-13T04:55:26;7.93;;;2.20;;
17812;SDS011;9030;50.792;8.320;2023-07-13T04:57:55;7.38;;;2.85;;
17812;SDS011;9030;50.792;8.320;2023-07-13T05:00:23;9.25;;;2.35;;
17812;SDS011;9030;50.792;8.320;2023-07-13T05:02:50;7.93;;;2.33;;
17812;SDS011;9030;50.792;8.320;2023-07-13T05:05:17;8.13;;;2.13;;
17812;SDS011;9030;50.792;8.320;2023-07-13T05:07:44;8.07;;;2.08;;
17812;SDS011;9030;50.792;8.320;2023-07-13T05:10:10;4.85;;;2.20;;
17812;SDS011;9030;50.792;8.320;2023-07-13T05:12:38;7.50;;;2.47;;
17812;SDS011;9030;50.792;8.320;2023-07-13T05:15:05;6.75;;;2.22;;
17812;SDS011;9030;50.792;8.320;2023-07-13T05:17:33;4.68;;;1.55;;
17812;SDS011;9030;50.792;8.320;2023-07-13T05:19:59;7.75;;;2.17;;
17812;SDS011;9030;50.792;8.320;2023-07-13T05:22:26;10.50;;;2.42;;
17812;SDS011;9030;50.792;8.320;2023-07-13T05:24:53;8.32;;;2.22;;
17812;SDS011;9030;50.792;8.320;2023-07-13T05:27:19;7.90;;;2.58;;
17812;SDS011;9030;50.792;8.320;2023-07-13T05:29:47;8.05;;;2.75;;
17812;SDS011;9030;50.792;8.320;2023-07-13T05:32:14;7.80;;;2.33;;
17812;SDS011;9030;50.792;8.320;2023-07-13T05:34:41;6.38;;;1.83;;
17812;SDS011;9030;50.792;8.320;2023-07-13T05:37:08;6.60;;;2.28;;
17812;SDS011;9030;50.792;8.320;2023-07-13T05:39:34;5.50;;;1.98;;
17812;SDS011;9030;50.792;8.320;2023-07-13T05:42:01;12.95;;;2.08;;
17812;SDS011;9030;50.792;8.320;2023-07-13T05:44:28;7.10;;;1.80;;
17812;SDS011;9030;50.792;8.320;2023-07-13T05:46:56;6.05;;;2.72;;
17812;SDS011;9030;50.792;8.320;2023-07-13T05:49:23;10.02;;;2.00;;
17812;SDS011;9030;50.792;8.320;2023-07-13T05:51:49;9.20;;;2.22;;
17812;SDS011;9030;50.792;8.320;2023-07-13T05:54:16;9.77;;;2.63;;
17812;SDS011;9030;50.792;8.320;2023-07-13T05:56:43;7.50;;;2.42;;
17812;SDS011;9030;50.792;8.320;2023-07-13T05:59:09;8.85;;;1.98;;
17812;SDS011;9030;50.792;8.320;2023-07-13T06:01:36;9.00;;;2.22;;
17812;SDS011;9030;50.792;8.320;2023-07-13T06:04:04;6.97;;;1.98;;
17812;SDS011;9030;50.792;8.320;2023-07-13T06:06:30;9.00;;;2.38;;
17812;SDS011;9030;50.792;8.320;2023-07-13T06:08:57;9.45;;;2.47;;
17812;SDS011;9030;50.792;8.320;2023-07-13T06:11:25;10.60;;;2.20;;
17812;SDS011;9030;50.792;8.320;2023-07-13T06:13:55;7.57;;;1.70;;
17812;SDS011;9030;50.792;8.320;2023-07-13T06:16:22;12.23;;;2.30;;
17812;SDS011;9030;50.792;8.320;2023-07-13T06:18:49;7.60;;;1.38;;
17812;SDS011;9030;50.792;8.320;2023-07-13T06:21:20;12.88;;;2.05;;
17812;SDS011;9030;50.792;8.320;2023-07-13T06:23:48;6.35;;;2.45;;
17812;SDS011;9030;50.792;8.320;2023-07-13T06:26:16;7.03;;;2.38;;
17812;SDS011;9030;50.792;8.320;2023-07-13T06:28:44;6.88;;;1.48;;
17812;SDS011;9030;50.792;8.320;2023-07-13T06:31:12;5.07;;;1.23;;
17812;SDS011;9030;50.792;8.320;2023-07-13T06:33:39;8.45;;;1.75;;
17812;SDS011;9030;50.792;8.320;2023-07-13T06:36:07;3.42;;;1.33;;
17812;SDS011;9030;50.792;8.320;2023-07-13T06:38:35;7.53;;;1.27;;
17812;SDS011;9030;50.792;8.320;2023-07-13T06:41:03;8.07;;;1.33;;
17812;SDS011;9030;50.792;8.320;2023-07-13T06:43:30;5.35;;;1.25;;
17812;SDS011;9030;50.792;8.320;2023-07-13T06:45:57;10.45;;;1.80;;
17812;SDS011;9030;50.792;8.320;2023-07-13T06:48:24;8.32;;;1.73;;
17812;SDS011;9030;50.792;8.320;2023-07-13T06:50:51;4.07;;;1.05;;
17812;SDS011;9030;50.792;8.320;2023-07-13T06:53:18;8.88;;;1.42;;
17812;SDS011;9030;50.792;8.320;2023-07-13T06:55:47;4.85;;;1.45;;
17812;SDS011;9030;50.792;8.320;2023-07-13T06:58:14;5.53;;;1.38;;
17812;SDS011;9030;50.792;8.320;2023-07-13T07:00:41;5.43;;;1.55;;
17812;SDS011;9030;50.792;8.320;2023-07-13T07:03:08;9.10;;;2.17;;
17812;SDS011;9030;50.792;8.320;2023-07-13T07:05:34;8.27;;;1.25;;
17812;SDS011;9030;50.792;8.320;2023-07-13T07:08:01;5.32;;;1.63;;
17812;SDS011;9030;50.792;8.320;2023-07-13T07:10:28;5.70;;;1.58;;
17812;SDS011;9030;50.792;8.320;2023-07-13T07:12:57;9.63;;;1.95;;
17812;SDS011;9030;50.792;8.320;2023-07-13T07:15:24;5.90;;;1.52;;
17812;SDS011;9030;50.792;8.320;2023-07-13T07:17:51;10.63;;;2.28;;
17812;SDS011;9030;50.792;8.320;2023-07-13T07:20:18;5.32;;;1.60;;
17812;SDS011;9030;50.792;8.320;2023-07-13T07:22:45;7.18;;;1.70;;
17812;SDS011;9030;50.792;8.320;2023-07-13T07:25:12;5.28;;;1.30;;
17812;SDS011;9030;50.792;8.320;2023-07-13T07:27:38;3.60;;;1.30;;
17812;SDS011;9030;50.792;8.320;2023-07-13T07:30:07;5.72;;;1.30;;
17812;SDS011;9030;50.792;8.320;2023-07-13T07:32:34;6.28;;;1.50;;
17812;SDS011;9030;50.792;8.320;2023-07-13T07:35:01;9.00;;;1.63;;
17812;SDS011;9030;50.792;8.320;2023-07-13T07:37:27;3.60;;;1.33;;
17812;SDS011;9030;50.792;8.320;2023-07-13T07:39:54;7.13;;;1.98;;
17812;SDS011;9030;50.792;8.320;2023-07-13T07:42:21;7.43;;;1.65;;
17812;SDS011;9030;50.792;8.320;2023-07-13T07:44:48;5.72;;;1.65;;
17812;SDS011;9030;50.792;8.320;2023-07-13T07:47:16;5.88;;;1.35;;
17812;SDS011;9030;50.792;8.320;2023-07-13T07:49:42;7.15;;;1.63;;
17812;SDS011;9030;50.792;8.320;2023-07-13T07:52:09;3.70;;;0.98;;
17812;SDS011;9030;50.792;8.320;2023-07-13T07:54:36;5.53;;;1.25;;
17812;SDS011;9030;50.792;8.320;2023-07-13T07:57:02;5.38;;;1.02;;
17812;SDS011;9030;50.792;8.320;2023-07-13T07:59:29;5.53;;;1.25;;
17812;SDS011;9030;50.792;8.320;2023-07-13T08:01:56;3.30;;;1.17;;
17812;SDS011;9030;50.792;8.320;2023-07-13T08:04:24;5.57;;;1.30;;
17812;SDS011;9030;50.792;8.320;2023-07-13T08:06:50;4.95;;;1.33;;
17812;SDS011;9030;50.792;8.320;2023-07-13T08:09:17;8.50;;;1.40;;
17812;SDS011;9030;50.792;8.320;2023-07-13T08:11:44;3.47;;;1.13;;
17812;SDS011;9030;50.792;8.320;2023-07-13T08:14:10;6.28;;;1.60;;
17812;SDS011;9030;50.792;8.320;2023-07-13T08:16:37;4.88;;;1.30;;
17812;SDS011;9030;50.792;8.320;2023-07-13T08:19:04;3.60;;;1.15;;
17812;SDS011;9030;50.792;8.320;2023-07-13T08:21:32;4.93;;;1.00;;
17812;SDS011;9030;50.792;8.320;2023-07-13T08:23:59;3.33;;;0.90;;
17812;SDS011;9030;50.792;8.320;2023-07-13T08:26:25;3.58;;;1.30;;
17812;SDS011;9030;50.792;8.320;2023-07-13T08:28:52;6.38;;;1.55;;
17812;SDS011;9030;50.792;8.320;2023-07-13T08:31:18;7.30;;;1.27;;
17812;SDS011;9030;50.792;8.320;2023-07-13T08:33:45;5.05;;;1.00;;
17812;SDS011;9030;50.792;8.320;2023-07-13T08:36:12;3.72;;;0.98;;
17812;SDS011;9030;50.792;8.320;2023-07-13T08:38:40;4.53;;;0.80;;
17812;SDS011;9030;50.792;8.320;2023-07-13T08:41:11;3.47;;;0.90;;
17812;SDS011;9030;50.792;8.320;2023-07-13T08:43:39;2.95;;;1.20;;
17812;SDS011;9030;50.792;8.320;2023-07-13T08:46:08;2.67;;;1.02;;
17812;SDS011;9030;50.792;8.320;2023-07-13T08:48:39;3.72;;;0.93;;
17812;SDS011;9030;50.792;8.320;2023-07-13T08:51:11;4.97;;;0.93;;
17812;SDS011;9030;50.792;8.320;2023-07-13T08:53:47;6.05;;;0.90;;
17812;SDS011;9030;50.792;8.320;2023-07-13T08:56:17;2.78;;;0.90;;
17812;SDS011;9030;50.792;8.320;2023-07-13T08:58:46;4.93;;;0.77;;
17812;SDS011;9030;50.792;8.320;2023-07-13T09:01:21;4.28;;;0.98;;
17812;SDS011;9030;50.792;8.320;2023-07-13T09:03:52;4.35;;;0.90;;
17812;SDS011;9030;50.792;8.320;2023-07-13T09:06:29;4.30;;;1.13;;
17812;SDS011;9030;50.792;8.320;2023-07-13T09:09:01;2.58;;;0.93;;
17812;SDS011;9030;50.792;8.320;2023-07-13T09:11:36;3.13;;;0.90;;
17812;SDS011;9030;50.792;8.320;2023-07-13T09:14:16;3.92;;;0.93;;
17812;SDS011;9030;50.792;8.320;2023-07-13T09:17:02;5.45;;;1.20;;
17812;SDS011;9030;50.792;8.320;2023-07-13T09:19:31;2.13;;;0.77;;
17812;SDS011;9030;50.792;8.320;2023-07-13T09:22:00;2.80;;;1.17;;
17812;SDS011;9030;50.792;8.320;2023-07-13T09:24:34;5.05;;;1.05;;
17812;SDS011;9030;50.792;8.320;2023-07-13T09:27:05;5.13;;;1.38;;
17812;SDS011;9030;50.792;8.320;2023-07-13T09:29:42;5.72;;;1.88;;
17812;SDS011;9030;50.792;8.320;2023-07-13T09:32:14;3.53;;;0.70;;
17812;SDS011;9030;50.792;8.320;2023-07-13T09:34:49;3.15;;;0.80;;
17812;SDS011;9030;50.792;8.320;2023-07-13T09:37:17;2.55;;;1.00;;
17812;SDS011;9030;50.792;8.320;2023-07-13T09:39:47;7.53;;;1.05;;
17812;SDS011;9030;50.792;8.320;2023-07-13T09:42:18;4.30;;;1.30;;
17812;SDS011;9030;50.792;8.320;2023-07-13T09:44:51;3.78;;;1.17;;
17812;SDS011;9030;50.792;8.320;2023-07-13T09:47:20;5.68;;;1.00;;
17812;SDS011;9030;50.792;8.320;2023-07-13T09:49:53;4.63;;;1.40;;
17812;SDS011;9030;50.792;8.320;2023-07-13T09:52:23;5.47;;;1.35;;
17812;SDS011;9030;50.792;8.320;2023-07-13T09:54:52;4.45;;;1.05;;
17812;SDS011;9030;50.792;8.320;2023-07-13T09:57:24;5.40;;;1.08;;
17812;SDS011;9030;50.792;8.320;2023-07-13T09:59:53;3.72;;;1.17;;
17812;SDS011;9030;50.792;8.320;2023-07-13T10:02:26;4.82;;;1.00;;
17812;SDS011;9030;50.792;8.320;2023-07-13T10:04:58;5.07;;;2.60;;
17812;SDS011;9030;50.792;8.320;2023-07-13T10:07:28;3.33;;;1.08;;
17812;SDS011;9030;50.792;8.320;2023-07-13T10:09:57;6.22;;;1.10;;
17812;SDS011;9030;50.792;8.320;2023-07-13T10:12:26;2.30;;;0.95;;
17812;SDS011;9030;50.792;8.320;2023-07-13T10:14:55;2.22;;;0.85;;
17812;SDS011;9030;50.792;8.320;2023-07-13T10:17:25;3.85;;;1.02;;
17812;SDS011;9030;50.792;8.320;2023-07-13T10:19:55;6.82;;;1.40;;
17812;SDS011;9030;50.792;8.320;2023-07-13T10:22:27;3.20;;;1.02;;
17812;SDS011;9030;50.792;8.320;2023-07-13T10:24:58;4.50;;;1.13;;
17812;SDS011;9030;50.792;8.320;2023-07-13T10:27:28;4.35;;;1.25;;
17812;SDS011;9030;50.792;8.320;2023-07-13T10:30:00;4.10;;;1.00;;
17812;SDS011;9030;50.792;8.320;2023-07-13T10:32:33;7.25;;;1.77;;
17812;SDS011;9030;50.792;8.320;2023-07-13T10:35:00;3.88;;;1.45;;
17812;SDS011;9030;50.792;8.320;2023-07-13T10:37:29;3.20;;;1.25;;
17812;SDS011;9030;50.792;8.320;2023-07-13T10:40:03;4.00;;;1.02;;
17812;SDS011;9030;50.792;8.320;2023-07-13T10:42:33;6.00;;;1.10;;
17812;SDS011;9030;50.792;8.320;2023-07-13T10:45:08;3.22;;;1.02;;
17812;SDS011;9030;50.792;8.320;2023-07-13T10:47:39;3.53;;;1.25;;
17812;SDS011;9030;50.792;8.320;2023-07-13T10:50:07;3.50;;;1.02;;
17812;SDS011;9030;50.792;8.320;2023-07-13T10:52:42;9.60;;;1.95;;
17812;SDS011;9030;50.792;8.320;2023-07-13T10:58:02;5.25;;;1.00;;
17812;SDS011;9030;50.792;8.320;2023-07-13T11:00:42;4.35;;;1.00;;
17812;SDS011;9030;50.792;8.320;2023-07-13T11:03:13;3.88;;;0.95;;
17812;SDS011;9030;50.792;8.320;2023-07-13T11:05:43;4.03;;;1.15;;
17812;SDS011;9030;50.792;8.320;2023-07-13T11:08:16;5.38;;;1.27;;
17812;SDS011;9030;50.792;8.320;2023-07-13T11:10:50;7.20;;;0.93;;
17812;SDS011;9030;50.792;8.320;2023-07-13T11:13:38;5.47;;;1.10;;
17812;SDS011;9030;50.792;8.320;2023-07-13T11:16:33;4.38;;;1.10;;
17812;SDS011;9030;50.792;8.320;2023-07-13T11:19:24;5.15;;;1.40;;
17812;SDS011;9030;50.792;8.320;2023-07-13T11:22:13;5.78;;;1.10;;
17812;SDS011;9030;50.792;8.320;2023-07-13T11:24:49;6.35;;;1.40;;
17812;SDS011;9030;50.792;8.320;2023-07-13T11:27:41;3.20;;;0.88;;
17812;SDS011;9030;50.792;8.320;2023-07-13T11:30:31;2.97;;;1.10;;
17812;SDS011;9030;50.792;8.320;2023-07-13T11:33:02;3.75;;;1.10;;
17812;SDS011;9030;50.792;8.320;2023-07-13T11:35:33;4.03;;;1.05;;
17812;SDS011;9030;50.792;8.320;2023-07-13T11:38:03;4.18;;;0.95;;
17812;SDS011;9030;50.792;8.320;2023-07-13T11:40:39;5.13;;;1.40;;
17812;SDS011;9030;50.792;8.320;2023-07-13T11:43:11;4.00;;;1.02;;
17812;SDS011;9030;50.792;8.320;2023-07-13T11:45:39;6.05;;;1.30;;
17812;SDS011;9030;50.792;8.320;2023-07-13T11:48:16;5.03;;;1.08;;
17812;SDS011;9030;50.792;8.320;2023-07-13T11:50:49;3.83;;;0.90;;
17812;SDS011;9030;50.792;8.320;2023-07-13T11:53:18;5.55;;;1.50;;
17812;SDS011;9030;50.792;8.320;2023-07-13T11:55:45;5.05;;;1.00;;
17812;SDS011;9030;50.792;8.320;2023-07-13T11:58:14;5.45;;;1.20;;
17812;SDS011;9030;50.792;8.320;2023-07-13T12:00:46;4.15;;;1.05;;
17812;SDS011;9030;50.792;8.320;2023-07-13T12:03:14;3.15;;;0.90;;
17812;SDS011;9030;50.792;8.320;2023-07-13T12:05:54;4.75;;;1.45;;
17812;SDS011;9030;50.792;8.320;2023-07-13T12:08:22;7.20;;;1.67;;
17812;SDS011;9030;50.792;8.320;2023-07-13T12:10:55;5.47;;;1.40;;
17812;SDS011;9030;50.792;8.320;2023-07-13T12:13:24;7.10;;;2.55;;
17812;SDS011;9030;50.792;8.320;2023-07-13T12:15:53;2.58;;;1.35;;
17812;SDS011;9030;50.792;8.320;2023-07-13T12:18:20;7.43;;;2.03;;
17812;SDS011;9030;50.792;8.320;2023-07-13T12:20:49;4.15;;;0.90;;
17812;SDS011;9030;50.792;8.320;2023-07-13T12:23:20;3.20;;;1.20;;
17812;SDS011;9030;50.792;8.320;2023-07-13T12:25:51;6.47;;;1.58;;
17812;SDS011;9030;50.792;8.320;2023-07-13T12:28:21;6.65;;;2.15;;
17812;SDS011;9030;50.792;8.320;2023-07-13T12:30:59;7.43;;;1.67;;
17812;SDS011;9030;50.792;8.320;2023-07-13T12:33:27;11.05;;;1.80;;
17812;SDS011;9030;50.792;8.320;2023-07-13T12:35:56;2.90;;;1.05;;
17812;SDS011;9030;50.792;8.320;2023-07-13T12:38:24;4.03;;;1.10;;
17812;SDS011;9030;50.792;8.320;2023-07-13T12:40:51;8.25;;;1.45;;
17812;SDS011;9030;50.792;8.320;2023-07-13T12:43:20;4.88;;;1.52;;
17812;SDS011;9030;50.792;8.320;2023-07-13T12:45:59;6.18;;;1.60;;
17812;SDS011;9030;50.792;8.320;2023-07-13T12:48:27;6.82;;;1.45;;
17812;SDS011;9030;50.792;8.320;2023-07-13T12:50:55;5.32;;;1.80;;
17812;SDS011;9030;50.792;8.320;2023-07-13T12:53:27;4.82;;;1.20;;
17812;SDS011;9030;50.792;8.320;2023-07-13T12:55:57;2.72;;;1.52;;
17812;SDS011;9030;50.792;8.320;2023-07-13T12:58:28;7.35;;;1.92;;
17812;SDS011;9030;50.792;8.320;2023-07-13T13:01:00;4.50;;;1.30;;
17812;SDS011;9030;50.792;8.320;2023-07-13T13:03:29;2.92;;;1.23;;
17812;SDS011;9030;50.792;8.320;2023-07-13T13:05:58;6.03;;;1.48;;
17812;SDS011;9030;50.792;8.320;2023-07-13T13:08:28;6.82;;;1.45;;
17812;SDS011;9030;50.792;8.320;2023-07-13T13:10:55;6.78;;;1.40;;
17812;SDS011;9030;50.792;8.320;2023-07-13T13:13:22;4.93;;;1.58;;
17812;SDS011;9030;50.792;8.320;2023-07-13T13:15:49;4.38;;;1.73;;
17812;SDS011;9030;50.792;8.320;2023-07-13T13:18:18;8.70;;;2.03;;
17812;SDS011;9030;50.792;8.320;2023-07-13T13:20:46;4.38;;;1.48;;
17812;SDS011;9030;50.792;8.320;2023-07-13T13:23:14;8.15;;;2.78;;
17812;SDS011;9030;50.792;8.320;2023-07-13T13:25:42;5.85;;;2.20;;
17812;SDS011;9030;50.792;8.320;2023-07-13T13:28:14;13.57;;;2.25;;
17812;SDS011;9030;50.792;8.320;2023-07-13T13:30:43;5.90;;;1.75;;
17812;SDS011;9030;50.792;8.320;2023-07-13T13:33:10;6.80;;;1.65;;
17812;SDS011;9030;50.792;8.320;2023-07-13T13:35:40;7.13;;;3.05;;
17812;SDS011;9030;50.792;8.320;2023-07-13T13:38:11;7.53;;;1.33;;
17812;SDS011;9030;50.792;8.320;2023-07-13T13:40:39;5.55;;;1.35;;
17812;SDS011;9030;50.792;8.320;2023-07-13T13:43:11;6.35;;;1.40;;
17812;SDS011;9030;50.792;8.320;2023-07-13T13:45:41;4.30;;;1.25;;
17812;SDS011;9030;50.792;8.320;2023-07-13T13:48:09;4.50;;;1.38;;
17812;SDS011;9030;50.792;8.320;2023-07-13T13:50:42;7.45;;;1.88;;
17812;SDS011;9030;50.792;8.320;2023-07-13T13:53:10;4.22;;;1.38;;
17812;SDS011;9030;50.792;8.320;2023-07-13T13:55:37;5.57;;;1.38;;
17812;SDS011;9030;50.792;8.320;2023-07-13T13:58:06;5.07;;;1.42;;
17812;SDS011;9030;50.792;8.320;2023-07-13T14:00:34;4.32;;;1.52;;
17812;SDS011;9030;50.792;8.320;2023-07-13T14:03:02;3.50;;;1.08;;
17812;SDS011;9030;50.792;8.320;2023-07-13T14:05:30;5.93;;;1.60;;
17812;SDS011;9030;50.792;8.320;2023-07-13T14:07:58;6.13;;;1.33;;
17812;SDS011;9030;50.792;8.320;2023-07-13T14:10:25;6.97;;;1.98;;
17812;SDS011;9030;50.792;8.320;2023-07-13T14:12:53;5.20;;;1.15;;
17812;SDS011;9030;50.792;8.320;2023-07-13T14:15:22;5.32;;;1.30;;
17812;SDS011;9030;50.792;8.320;2023-07-13T14:17:50;8.63;;;1.42;;
17812;SDS011;9030;50.792;8.320;2023-07-13T14:20:17;3.08;;;1.15;;
17812;SDS011;9030;50.792;8.320;2023-07-13T14:22:45;5.15;;;1.10;;
17812;SDS011;9030;50.792;8.320;2023-07-13T14:25:15;5.95;;;1.45;;
17812;SDS011;9030;50.792;8.320;2023-07-13T14:27:44;3.33;;;1.30;;
17812;SDS011;9030;50.792;8.320;2023-07-13T14:30:14;4.82;;;1.65;;
17812;SDS011;9030;50.792;8.320;2023-07-13T14:32:43;3.72;;;1.48;;
17812;SDS011;9030;50.792;8.320;2023-07-13T14:35:10;6.32;;;1.30;;
17812;SDS011;9030;50.792;8.320;2023-07-13T14:37:37;4.40;;;1.45;;
17812;SDS011;9030;50.792;8.320;2023-07-13T14:40:11;8.80;;;2.22;;
17812;SDS011;9030;50.792;8.320;2023-07-13T14:42:41;6.03;;;1.42;;
17812;SDS011;9030;50.792;8.320;2023-07-13T14:45:12;4.10;;;1.52;;
17812;SDS011;9030;50.792;8.320;2023-07-13T14:47:40;5.70;;;1.83;;
17812;SDS011;9030;50.792;8.320;2023-07-13T14:50:12;3.80;;;1.40;;
17812;SDS011;9030;50.792;8.320;2023-07-13T14:52:41;3.05;;;1.35;;
17812;SDS011;9030;50.792;8.320;2023-07-13T14:55:09;5.75;;;1.40;;
17812;SDS011;9030;50.792;8.320;2023-07-13T14:57:37;4.45;;;1.38;;
17812;SDS011;9030;50.792;8.320;2023-07-13T15:00:07;3.83;;;0.90;;
17812;SDS011;9030;50.792;8.320;2023-07-13T15:02:40;4.20;;;1.20;;
17812;SDS011;9030;50.792;8.320;2023-07-13T15:05:12;4.35;;;1.27;;
17812;SDS011;9030;50.792;8.320;2023-07-13T15:07:40;2.53;;;1.20;;
17812;SDS011;9030;50.792;8.320;2023-07-13T15:10:12;4.00;;;1.60;;
17812;SDS011;9030;50.792;8.320;2023-07-13T15:12:40;2.33;;;1.02;;
17812;SDS011;9030;50.792;8.320;2023-07-13T15:15:08;6.65;;;1.30;;
17812;SDS011;9030;50.792;8.320;2023-07-13T15:17:36;4.55;;;1.55;;
17812;SDS011;9030;50.792;8.320;2023-07-13T15:20:05;5.45;;;1.63;;
17812;SDS011;9030;50.792;8.320;2023-07-13T15:22:38;5.05;;;1.25;;
17812;SDS011;9030;50.792;8.320;2023-07-13T15:25:07;5.55;;;1.27;;
17812;SDS011;9030;50.792;8.320;2023-07-13T15:27:41;2.67;;;1.00;;
17812;SDS011;9030;50.792;8.320;2023-07-13T15:30:09;4.10;;;1.30;;
17812;SDS011;9030;50.792;8.320;2023-07-13T15:32:37;5.15;;;1.70;;
17812;SDS011;9030;50.792;8.320;2023-07-13T15:35:04;3.53;;;1.30;;
17812;SDS011;9030;50.792;8.320;2023-07-13T15:37:31;5.13;;;1.77;;
17812;SDS011;9030;50.792;8.320;2023-07-13T15:39:58;4.32;;;1.40;;
17812;SDS011;9030;50.792;8.320;2023-07-13T15:42:24;4.78;;;1.17;;
17812;SDS011;9030;50.792;8.320;2023-07-13T15:44:51;3.78;;;1.30;;
17812;SDS011;9030;50.792;8.320;2023-07-13T15:47:19;4.70;;;1.20;;
17812;SDS011;9030;50.792;8.320;2023-07-13T15:49:46;6.55;;;2.10;;